sensor_id;sensor_type;location;lat;lon;timestamp;P1;durP1;ratioP1;P2;durP2;ratioP2
3155;SDS011;1588;50.892;7.082;2023-10-08T00:01:44;7.10;;;3.33;;
3155;SDS011;1588;50.892;7.082;2023-10-08T00:06:49;6.57;;;3.37;;
3155;SDS011;1588;50.892;7.082;2023-10-08T00:11:53;6.43;;;3.13;;
3155;SDS011;1588;50.892;7.082;2023-10-08T00:16:56;5.20;;;2.93;;
3155;SDS011;1588;50.892;7.082;2023-10-08T00:22:02;6.07;;;3.13;;
3155;SDS011;1588;50.892;7.082;2023-10-08T00:27:08;7.50;;;3.20;;
3155;SDS011;1588;50.892;7.082;2023-10-08T00:32:12;8.53;;;3.80;;
3155;SDS011;1588;50.892;7.082;2023-10-08T00:37:36;10.60;;;3.30;;
3155;SDS011;1588;50.892;7.082;2023-10-08T00:42:38;9.43;;;3.53;;
3155;SDS011;1588;50.892;7.082;2023-10-08T00:47:45;7.77;;;3.00;;
3155;SDS011;1588;50.892;7.082;2023-10-08T00:52:49;5.37;;;2.80;;
3155;SDS011;1588;50.892;7.082;2023-10-08T00:58:01;6.40;;;3.37;;
3155;SDS011;1588;50.892;7.082;2023-10-08T01:03:09;11.43;;;3.30;;
3155;SDS011;1588;50.892;7.082;2023-10-08T01:08:18;11.70;;;3.77;;
3155;SDS011;1588;50.892;7.082;2023-10-08T01:13:23;11.43;;;3.70;;
3155;SDS011;1588;50.892;7.082;2023-10-08T01:18:27;11.63;;;3.10;;
3155;SDS011;1588;50.892;7.082;2023-10-08T01:23:34;9.67;;;3.80;;
3155;SDS011;1588;50.892;7.082;2023-10-08T01:28:39;8.73;;;3.87;;
3155;SDS011;1588;50.892;7.082;2023-10-08T01:33:43;10.63;;;4.33;;
3155;SDS011;1588;50.892;7.082;2023-10-08T01:38:52;10.03;;;3.80;;
3155;SDS011;1588;50.892;7.082;2023-10-08T01:43:55;7.13;;;3.37;;
3155;SDS011;1588;50.892;7.082;2023-10-08T01:48:58;14.80;;;3.67;;
3155;SDS011;1588;50.892;7.082;2023-10-08T01:54:08;7.67;;;3.00;;
3155;SDS011;1588;50.892;7.082;2023-10-08T01:59:14;6.83;;;3.50;;
3155;SDS011;1588;50.892;7.082;2023-10-08T02:04:16;4.90;;;2.67;;
3155;SDS011;1588;50.892;7.082;2023-10-08T02:09:20;6.20;;;3.33;;
3155;SDS011;1588;50.892;7.082;2023-10-08T02:14:27;7.57;;;3.30;;
3155;SDS011;1588;50.892;7.082;2023-10-08T02:19:32;6.60;;;2.73;;
3155;SDS011;1588;50.892;7.082;2023-10-08T02:24:37;9.13;;;3.70;;
3155;SDS011;1588;50.892;7.082;2023-10-08T02:29:41;7.40;;;3.80;;
3155;SDS011;1588;50.892;7.082;2023-10-08T02:34:43;10.10;;;3.57;;
3155;SDS011;1588;50.892;7.082;2023-10-08T02:39:47;11.53;;;3.50;;
3155;SDS011;1588;50.892;7.082;2023-10-08T02:44:49;18.07;;;3.93;;
3155;SDS011;1588;50.892;7.082;2023-10-08T02:49:52;8.40;;;3.27;;
3155;SDS011;1588;50.892;7.082;2023-10-08T02:54:56;7.43;;;3.77;;
3155;SDS011;1588;50.892;7.082;2023-10-08T02:59:58;5.00;;;3.23;;
3155;SDS011;1588;50.892;7.082;2023-10-08T03:05:24;7.13;;;3.07;;
3155;SDS011;1588;50.892;7.082;2023-10-08T03:10:32;10.03;;;3.60;;
3155;SDS011;1588;50.892;7.082;2023-10-08T03:15:35;8.43;;;4.20;;
3155;SDS011;1588;50.892;7.082;2023-10-08T03:20:47;9.07;;;3.33;;
3155;SDS011;1588;50.892;7.082;2023-10-08T03:25:51;10.87;;;3.40;;
3155;SDS011;1588;50.892;7.082;2023-10-08T03:30:59;10.13;;;3.43;;
3155;SDS011;1588;50.892;7.082;2023-10-08T03:36:05;8.53;;;3.67;;
3155;SDS011;1588;50.892;7.082;2023-10-08T03:41:16;11.30;;;3.40;;
3155;SDS011;1588;50.892;7.082;2023-10-08T03:46:21;10.60;;;3.73;;
3155;SDS011;1588;50.892;7.082;2023-10-08T03:51:25;8.60;;;3.50;;
3155;SDS011;1588;50.892;7.082;2023-10-08T03:56:29;13.70;;;3.47;;
3155;SDS011;1588;50.892;7.082;2023-10-08T04:01:32;6.33;;;3.20;;
3155;SDS011;1588;50.892;7.082;2023-10-08T04:06:35;6.93;;;3.87;;
3155;SDS011;1588;50.892;7.082;2023-10-08T04:11:40;16.63;;;3.83;;
3155;SDS011;1588;50.892;7.082;2023-10-08T04:16:54;9.97;;;4.53;;
3155;SDS011;1588;50.892;7.082;2023-10-08T04:21:56;13.80;;;3.80;;
3155;SDS011;1588;50.892;7.082;2023-10-08T04:27:00;9.80;;;3.80;;
3155;SDS011;1588;50.892;7.082;2023-10-08T04:32:14;12.97;;;4.00;;
3155;SDS011;1588;50.892;7.082;2023-10-08T04:37:27;9.50;;;3.67;;
3155;SDS011;1588;50.892;7.082;2023-10-08T04:42:35;7.60;;;3.30;;
3155;SDS011;1588;50.892;7.082;2023-10-08T04:47:38;8.93;;;3.50;;
3155;SDS011;1588;50.892;7.082;2023-10-08T04:52:42;8.93;;;4.00;;
3155;SDS011;1588;50.892;7.082;2023-10-08T04:58:00;9.20;;;3.80;;
3155;SDS011;1588;50.892;7.082;2023-10-08T05:03:12;12.33;;;4.03;;
3155;SDS011;1588;50.892;7.082;2023-10-08T05:08:15;10.20;;;2.87;;
3155;SDS011;1588;50.892;7.082;2023-10-08T05:13:30;17.53;;;3.80;;
3155;SDS011;1588;50.892;7.082;2023-10-08T05:18:45;11.80;;;3.80;;
3155;SDS011;1588;50.892;7.082;2023-10-08T05:24:08;8.20;;;4.00;;
3155;SDS011;1588;50.892;7.082;2023-10-08T05:29:15;10.87;;;3.70;;
3155;SDS011;1588;50.892;7.082;2023-10-08T05:34:34;10.73;;;4.47;;
3155;SDS011;1588;50.892;7.082;2023-10-08T05:39:43;7.23;;;3.40;;
3155;SDS011;1588;50.892;7.082;2023-10-08T05:44:56;7.80;;;3.60;;
3155;SDS011;1588;50.892;7.082;2023-10-08T05:50:15;26.67;;;3.73;;
3155;SDS011;1588;50.892;7.082;2023-10-08T05:55:39;5.70;;;3.97;;
3155;SDS011;1588;50.892;7.082;2023-10-08T06:00:49;10.10;;;3.97;;
3155;SDS011;1588;50.892;7.082;2023-10-08T06:06:09;10.37;;;4.20;;
3155;SDS011;1588;50.892;7.082;2023-10-08T06:11:38;14.93;;;3.87;;
3155;SDS011;1588;50.892;7.082;2023-10-08T06:16:52;13.67;;;3.87;;
3155;SDS011;1588;50.892;7.082;2023-10-08T06:22:13;7.50;;;4.03;;
3155;SDS011;1588;50.892;7.082;2023-10-08T06:27:16;11.00;;;4.03;;
3155;SDS011;1588;50.892;7.082;2023-10-08T06:32:21;9.70;;;3.37;;
3155;SDS011;1588;50.892;7.082;2023-10-08T06:37:27;8.77;;;4.70;;
3155;SDS011;1588;50.892;7.082;2023-10-08T06:42:30;9.53;;;4.13;;
3155;SDS011;1588;50.892;7.082;2023-10-08T06:47:37;7.73;;;4.00;;
3155;SDS011;1588;50.892;7.082;2023-10-08T06:52:40;7.80;;;4.07;;
3155;SDS011;1588;50.892;7.082;2023-10-08T06:57:44;10.23;;;4.20;;
3155;SDS011;1588;50.892;7.082;2023-10-08T07:02:49;6.50;;;3.90;;
3155;SDS011;1588;50.892;7.082;2023-10-08T07:07:54;9.30;;;4.87;;
3155;SDS011;1588;50.892;7.082;2023-10-08T07:12:57;10.30;;;3.70;;
3155;SDS011;1588;50.892;7.082;2023-10-08T07:18:01;10.10;;;3.87;;
3155;SDS011;1588;50.892;7.082;2023-10-08T07:23:10;9.57;;;4.33;;
3155;SDS011;1588;50.892;7.082;2023-10-08T07:28:20;8.63;;;4.67;;
3155;SDS011;1588;50.892;7.082;2023-10-08T07:33:26;11.83;;;5.70;;
3155;SDS011;1588;50.892;7.082;2023-10-08T07:38:37;20.70;;;4.83;;
3155;SDS011;1588;50.892;7.082;2023-10-08T07:43:39;12.03;;;4.37;;
3155;SDS011;1588;50.892;7.082;2023-10-08T07:48:43;7.77;;;4.40;;
3155;SDS011;1588;50.892;7.082;2023-10-08T07:53:47;12.93;;;5.07;;
3155;SDS011;1588;50.892;7.082;2023-10-08T07:58:54;11.60;;;4.60;;
3155;SDS011;1588;50.892;7.082;2023-10-08T08:03:58;11.57;;;4.73;;
3155;SDS011;1588;50.892;7.082;2023-10-08T08:09:01;10.20;;;4.30;;
3155;SDS011;1588;50.892;7.082;2023-10-08T08:14:05;12.90;;;5.30;;
3155;SDS011;1588;50.892;7.082;2023-10-08T08:19:10;8.97;;;4.53;;
3155;SDS011;1588;50.892;7.082;2023-10-08T08:24:13;9.80;;;4.53;;
3155;SDS011;1588;50.892;7.082;2023-10-08T08:29:29;10.40;;;4.37;;
3155;SDS011;1588;50.892;7.082;2023-10-08T08:34:38;13.57;;;4.30;;
3155;SDS011;1588;50.892;7.082;2023-10-08T08:39:44;6.13;;;3.90;;
3155;SDS011;1588;50.892;7.082;2023-10-08T08:44:46;13.30;;;4.10;;
3155;SDS011;1588;50.892;7.082;2023-10-08T08:49:53;7.73;;;3.77;;
3155;SDS011;1588;50.892;7.082;2023-10-08T08:55:00;9.90;;;4.20;;
3155;SDS011;1588;50.892;7.082;2023-10-08T09:00:07;8.23;;;3.43;;
3155;SDS011;1588;50.892;7.082;2023-10-08T09:05:13;9.27;;;4.10;;
3155;SDS011;1588;50.892;7.082;2023-10-08T09:10:25;12.20;;;4.20;;
3155;SDS011;1588;50.892;7.082;2023-10-08T09:15:29;12.47;;;4.40;;
3155;SDS011;1588;50.892;7.082;2023-10-08T09:20:36;13.63;;;4.43;;
3155;SDS011;1588;50.892;7.082;2023-10-08T09:25:44;11.60;;;5.07;;
3155;SDS011;1588;50.892;7.082;2023-10-08T09:30:50;12.10;;;4.83;;
3155;SDS011;1588;50.892;7.082;2023-10-08T09:35:57;17.77;;;4.80;;
3155;SDS011;1588;50.892;7.082;2023-10-08T09:41:03;10.53;;;4.60;;
3155;SDS011;1588;50.892;7.082;2023-10-08T09:46:12;22.90;;;6.37;;
3155;SDS011;1588;50.892;7.082;2023-10-08T09:51:19;15.13;;;5.13;;
3155;SDS011;1588;50.892;7.082;2023-10-08T09:56:21;16.33;;;5.00;;
3155;SDS011;1588;50.892;7.082;2023-10-08T10:01:26;22.53;;;5.03;;
3155;SDS011;1588;50.892;7.082;2023-10-08T10:06:30;18.87;;;6.17;;
3155;SDS011;1588;50.892;7.082;2023-10-08T10:11:32;18.73;;;6.60;;
3155;SDS011;1588;50.892;7.082;2023-10-08T10:16:36;30.93;;;5.83;;
3155;SDS011;1588;50.892;7.082;2023-10-08T10:21:41;23.80;;;6.33;;
3155;SDS011;1588;50.892;7.082;2023-10-08T10:26:43;27.67;;;8.60;;
3155;SDS011;1588;50.892;7.082;2023-10-08T10:31:50;37.73;;;7.83;;
3155;SDS011;1588;50.892;7.082;2023-10-08T10:36:56;17.90;;;6.63;;
3155;SDS011;1588;50.892;7.082;2023-10-08T10:42:03;26.10;;;6.17;;
3155;SDS011;1588;50.892;7.082;2023-10-08T10:47:06;19.10;;;5.90;;
3155;SDS011;1588;50.892;7.082;2023-10-08T10:52:28;17.03;;;5.97;;
3155;SDS011;1588;50.892;7.082;2023-10-08T10:57:46;21.70;;;5.90;;
3155;SDS011;1588;50.892;7.082;2023-10-08T11:02:56;18.20;;;6.77;;
3155;SDS011;1588;50.892;7.082;2023-10-08T11:08:04;23.73;;;6.53;;
3155;SDS011;1588;50.892;7.082;2023-10-08T11:13:10;29.53;;;6.93;;
3155;SDS011;1588;50.892;7.082;2023-10-08T11:18:16;24.37;;;7.40;;
3155;SDS011;1588;50.892;7.082;2023-10-08T11:23:32;21.40;;;6.33;;
3155;SDS011;1588;50.892;7.082;2023-10-08T11:28:36;18.03;;;7.07;;
3155;SDS011;1588;50.892;7.082;2023-10-08T11:33:43;25.37;;;7.50;;
3155;SDS011;1588;50.892;7.082;2023-10-08T11:38:56;23.03;;;7.03;;
3155;SDS011;1588;50.892;7.082;2023-10-08T11:44:02;20.27;;;7.33;;
3155;SDS011;1588;50.892;7.082;2023-10-08T11:49:05;20.57;;;7.60;;
3155;SDS011;1588;50.892;7.082;2023-10-08T11:54:09;15.30;;;6.70;;
3155;SDS011;1588;50.892;7.082;2023-10-08T11:59:12;21.13;;;7.73;;
3155;SDS011;1588;50.892;7.082;2023-10-08T12:04:14;19.07;;;7.50;;
3155;SDS011;1588;50.892;7.082;2023-10-08T12:09:18;30.43;;;8.20;;
3155;SDS011;1588;50.892;7.082;2023-10-08T12:14:22;18.47;;;6.97;;
3155;SDS011;1588;50.892;7.082;2023-10-08T12:19:30;21.03;;;7.23;;
3155;SDS011;1588;50.892;7.082;2023-10-08T12:24:38;27.00;;;9.33;;
3155;SDS011;1588;50.892;7.082;2023-10-08T12:29:40;24.10;;;8.20;;
3155;SDS011;1588;50.892;7.082;2023-10-08T12:34:43;23.20;;;8.93;;
3155;SDS011;1588;50.892;7.082;2023-10-08T12:39:49;25.20;;;10.03;;
3155;SDS011;1588;50.892;7.082;2023-10-08T12:45:00;29.93;;;8.47;;
3155;SDS011;1588;50.892;7.082;2023-10-08T12:50:12;28.93;;;8.30;;
3155;SDS011;1588;50.892;7.082;2023-10-08T12:55:19;19.97;;;7.30;;
3155;SDS011;1588;50.892;7.082;2023-10-08T13:00:24;23.37;;;7.60;;
3155;SDS011;1588;50.892;7.082;2023-10-08T13:05:30;21.50;;;9.10;;
3155;SDS011;1588;50.892;7.082;2023-10-08T13:10:38;33.20;;;8.57;;
3155;SDS011;1588;50.892;7.082;2023-10-08T13:15:44;35.63;;;8.87;;
3155;SDS011;1588;50.892;7.082;2023-10-08T13:20:47;25.83;;;7.70;;
3155;SDS011;1588;50.892;7.082;2023-10-08T13:25:53;23.70;;;9.00;;
3155;SDS011;1588;50.892;7.082;2023-10-08T13:30:56;22.60;;;9.77;;
3155;SDS011;1588;50.892;7.082;2023-10-08T13:35:59;20.20;;;8.00;;
3155;SDS011;1588;50.892;7.082;2023-10-08T13:41:03;37.53;;;8.00;;
3155;SDS011;1588;50.892;7.082;2023-10-08T13:46:16;19.93;;;8.90;;
3155;SDS011;1588;50.892;7.082;2023-10-08T13:51:20;35.30;;;14.27;;
3155;SDS011;1588;50.892;7.082;2023-10-08T13:56:28;26.57;;;7.70;;
3155;SDS011;1588;50.892;7.082;2023-10-08T14:01:31;23.67;;;8.13;;
3155;SDS011;1588;50.892;7.082;2023-10-08T14:06:35;26.20;;;8.00;;
3155;SDS011;1588;50.892;7.082;2023-10-08T14:11:48;15.97;;;7.07;;
3155;SDS011;1588;50.892;7.082;2023-10-08T14:16:53;21.07;;;7.03;;
3155;SDS011;1588;50.892;7.082;2023-10-08T14:22:05;21.53;;;8.33;;
3155;SDS011;1588;50.892;7.082;2023-10-08T14:27:12;17.33;;;7.10;;
3155;SDS011;1588;50.892;7.082;2023-10-08T14:32:16;22.57;;;7.57;;
3155;SDS011;1588;50.892;7.082;2023-10-08T14:37:20;24.23;;;7.50;;
3155;SDS011;1588;50.892;7.082;2023-10-08T14:42:44;23.40;;;7.77;;
3155;SDS011;1588;50.892;7.082;2023-10-08T14:47:57;24.27;;;7.23;;
3155;SDS011;1588;50.892;7.082;2023-10-08T14:53:02;25.00;;;8.00;;
3155;SDS011;1588;50.892;7.082;2023-10-08T14:58:07;20.50;;;7.20;;
3155;SDS011;1588;50.892;7.082;2023-10-08T15:03:11;14.60;;;6.87;;
3155;SDS011;1588;50.892;7.082;2023-10-08T15:08:13;23.33;;;7.57;;
3155;SDS011;1588;50.892;7.082;2023-10-08T15:13:20;14.87;;;7.40;;
3155;SDS011;1588;50.892;7.082;2023-10-08T15:18:22;27.47;;;8.00;;
3155;SDS011;1588;50.892;7.082;2023-10-08T15:23:32;18.90;;;8.00;;
3155;SDS011;1588;50.892;7.082;2023-10-08T15:28:36;23.73;;;7.73;;
3155;SDS011;1588;50.892;7.082;2023-10-08T15:33:38;18.23;;;7.80;;
3155;SDS011;1588;50.892;7.082;2023-10-08T15:38:41;17.70;;;7.27;;
3155;SDS011;1588;50.892;7.082;2023-10-08T15:43:46;25.40;;;7.37;;
3155;SDS011;1588;50.892;7.082;2023-10-08T15:48:52;22.20;;;7.17;;
3155;SDS011;1588;50.892;7.082;2023-10-08T15:53:54;18.30;;;7.93;;
3155;SDS011;1588;50.892;7.082;2023-10-08T15:58:58;30.60;;;8.47;;
3155;SDS011;1588;50.892;7.082;2023-10-08T16:04:00;19.77;;;7.70;;
3155;SDS011;1588;50.892;7.082;2023-10-08T16:09:03;35.83;;;8.83;;
3155;SDS011;1588;50.892;7.082;2023-10-08T16:14:08;33.27;;;7.40;;
3155;SDS011;1588;50.892;7.082;2023-10-08T16:19:10;21.33;;;7.90;;
3155;SDS011;1588;50.892;7.082;2023-10-08T16:24:12;23.37;;;8.87;;
3155;SDS011;1588;50.892;7.082;2023-10-08T16:29:16;18.57;;;8.33;;
3155;SDS011;1588;50.892;7.082;2023-10-08T16:34:20;15.47;;;8.10;;
3155;SDS011;1588;50.892;7.082;2023-10-08T16:39:23;25.43;;;8.83;;
3155;SDS011;1588;50.892;7.082;2023-10-08T16:44:27;33.47;;;8.20;;
3155;SDS011;1588;50.892;7.082;2023-10-08T16:49:30;26.17;;;7.80;;
3155;SDS011;1588;50.892;7.082;2023-10-08T16:54:32;21.43;;;7.33;;
3155;SDS011;1588;50.892;7.082;2023-10-08T16:59:36;18.33;;;7.80;;
3155;SDS011;1588;50.892;7.082;2023-10-08T17:04:38;24.43;;;7.90;;
3155;SDS011;1588;50.892;7.082;2023-10-08T17:09:41;22.73;;;8.10;;
3155;SDS011;1588;50.892;7.082;2023-10-08T17:14:45;23.00;;;8.77;;
3155;SDS011;1588;50.892;7.082;2023-10-08T17:19:48;28.47;;;8.80;;
3155;SDS011;1588;50.892;7.082;2023-10-08T17:24:51;21.53;;;8.47;;
3155;SDS011;1588;50.892;7.082;2023-10-08T17:29:55;19.90;;;8.57;;
3155;SDS011;1588;50.892;7.082;2023-10-08T17:34:58;26.40;;;9.50;;
3155;SDS011;1588;50.892;7.082;2023-10-08T17:40:00;20.20;;;8.13;;
3155;SDS011;1588;50.892;7.082;2023-10-08T17:45:07;19.77;;;9.03;;
3155;SDS011;1588;50.892;7.082;2023-10-08T17:50:14;20.30;;;9.50;;
3155;SDS011;1588;50.892;7.082;2023-10-08T17:55:20;32.17;;;11.50;;
3155;SDS011;1588;50.892;7.082;2023-10-08T18:00:24;35.43;;;9.43;;
3155;SDS011;1588;50.892;7.082;2023-10-08T18:05:26;29.23;;;8.40;;
3155;SDS011;1588;50.892;7.082;2023-10-08T18:10:32;28.70;;;9.77;;
3155;SDS011;1588;50.892;7.082;2023-10-08T18:15:38;22.00;;;8.37;;
3155;SDS011;1588;50.892;7.082;2023-10-08T18:20:40;18.77;;;8.07;;
3155;SDS011;1588;50.892;7.082;2023-10-08T18:25:45;20.63;;;8.47;;
3155;SDS011;1588;50.892;7.082;2023-10-08T18:30:49;26.50;;;9.93;;
3155;SDS011;1588;50.892;7.082;2023-10-08T18:36:01;25.40;;;9.47;;
3155;SDS011;1588;50.892;7.082;2023-10-08T18:41:04;22.63;;;8.53;;
3155;SDS011;1588;50.892;7.082;2023-10-08T18:46:09;21.30;;;8.50;;
3155;SDS011;1588;50.892;7.082;2023-10-08T18:51:12;20.30;;;8.47;;
3155;SDS011;1588;50.892;7.082;2023-10-08T18:56:17;28.93;;;13.23;;
3155;SDS011;1588;50.892;7.082;2023-10-08T19:01:21;40.87;;;10.53;;
3155;SDS011;1588;50.892;7.082;2023-10-08T19:06:26;19.63;;;9.17;;
3155;SDS011;1588;50.892;7.082;2023-10-08T19:11:29;25.70;;;9.20;;
3155;SDS011;1588;50.892;7.082;2023-10-08T19:16:34;19.43;;;9.30;;
3155;SDS011;1588;50.892;7.082;2023-10-08T19:21:37;22.70;;;9.60;;
3155;SDS011;1588;50.892;7.082;2023-10-08T19:26:41;24.77;;;9.27;;
3155;SDS011;1588;50.892;7.082;2023-10-08T19:31:47;17.97;;;8.80;;
3155;SDS011;1588;50.892;7.082;2023-10-08T19:36:50;22.83;;;8.63;;
3155;SDS011;1588;50.892;7.082;2023-10-08T19:42:15;19.93;;;7.80;;
3155;SDS011;1588;50.892;7.082;2023-10-08T19:47:19;16.10;;;8.07;;
3155;SDS011;1588;50.892;7.082;2023-10-08T19:52:22;28.17;;;9.27;;
3155;SDS011;1588;50.892;7.082;2023-10-08T19:57:24;26.70;;;8.13;;
3155;SDS011;1588;50.892;7.082;2023-10-08T20:02:28;25.30;;;8.90;;
3155;SDS011;1588;50.892;7.082;2023-10-08T20:07:32;20.67;;;9.57;;
3155;SDS011;1588;50.892;7.082;2023-10-08T20:12:34;22.17;;;8.93;;
3155;SDS011;1588;50.892;7.082;2023-10-08T20:17:41;25.80;;;8.87;;
3155;SDS011;1588;50.892;7.082;2023-10-08T20:22:45;26.37;;;8.60;;
3155;SDS011;1588;50.892;7.082;2023-10-08T20:27:50;19.97;;;8.67;;
3155;SDS011;1588;50.892;7.082;2023-10-08T20:32:54;27.07;;;10.03;;
3155;SDS011;1588;50.892;7.082;2023-10-08T20:37:56;19.47;;;9.20;;
3155;SDS011;1588;50.892;7.082;2023-10-08T20:42:59;19.97;;;8.70;;
3155;SDS011;1588;50.892;7.082;2023-10-08T20:48:03;20.70;;;9.47;;
3155;SDS011;1588;50.892;7.082;2023-10-08T20:53:07;27.80;;;10.53;;
3155;SDS011;1588;50.892;7.082;2023-10-08T20:58:10;23.10;;;10.00;;
3155;SDS011;1588;50.892;7.082;2023-10-08T21:03:20;27.77;;;11.27;;
3155;SDS011;1588;50.892;7.082;2023-10-08T21:08:22;22.67;;;10.00;;
3155;SDS011;1588;50.892;7.082;2023-10-08T21:13:25;35.93;;;10.70;;
3155;SDS011;1588;50.892;7.082;2023-10-08T21:18:30;33.23;;;10.50;;
3155;SDS011;1588;50.892;7.082;2023-10-08T21:23:32;32.47;;;9.70;;
3155;SDS011;1588;50.892;7.082;2023-10-08T21:28:36;33.13;;;10.67;;
3155;SDS011;1588;50.892;7.082;2023-10-08T21:33:39;28.20;;;10.53;;
3155;SDS011;1588;50.892;7.082;2023-10-08T21:38:42;25.20;;;10.10;;
3155;SDS011;1588;50.892;7.082;2023-10-08T21:43:45;30.70;;;11.10;;
3155;SDS011;1588;50.892;7.082;2023-10-08T21:48:49;25.10;;;11.27;;
3155;SDS011;1588;50.892;7.082;2023-10-08T21:53:51;33.93;;;11.97;;
3155;SDS011;1588;50.892;7.082;2023-10-08T21:58:54;31.90;;;12.87;;
3155;SDS011;1588;50.892;7.082;2023-10-08T22:03:58;33.90;;;11.77;;
3155;SDS011;1588;50.892;7.082;2023-10-08T22:09:10;31.93;;;11.60;;
3155;SDS011;1588;50.892;7.082;2023-10-08T22:14:12;25.80;;;10.37;;
3155;SDS011;1588;50.892;7.082;2023-10-08T22:19:16;24.57;;;10.50;;
3155;SDS011;1588;50.892;7.082;2023-10-08T22:24:22;26.13;;;11.20;;
3155;SDS011;1588;50.892;7.082;2023-10-08T22:29:24;33.47;;;12.07;;
3155;SDS011;1588;50.892;7.082;2023-10-08T22:34:29;24.47;;;10.37;;
3155;SDS011;1588;50.892;7.082;2023-10-08T22:39:32;21.63;;;10.00;;
3155;SDS011;1588;50.892;7.082;2023-10-08T22:44:34;21.43;;;10.37;;
3155;SDS011;1588;50.892;7.082;2023-10-08T22:49:38;29.50;;;10.77;;
3155;SDS011;1588;50.892;7.082;2023-10-08T22:54:41;30.83;;;11.07;;
3155;SDS011;1588;50.892;7.082;2023-10-08T22:59:44;29.90;;;10.60;;
3155;SDS011;1588;50.892;7.082;2023-10-08T23:04:48;41.33;;;11.40;;
3155;SDS011;1588;50.892;7.082;2023-10-08T23:09:50;27.50;;;10.67;;
3155;SDS011;1588;50.892;7.082;2023-10-08T23:14:53;28.20;;;11.87;;
3155;SDS011;1588;50.892;7.082;2023-10-08T23:19:56;33.97;;;11.63;;
3155;SDS011;1588;50.892;7.082;2023-10-08T23:24:59;24.43;;;10.87;;
3155;SDS011;1588;50.892;7.082;2023-10-08T23:30:04;30.70;;;9.53;;
3155;SDS011;1588;50.892;7.082;2023-10-08T23:35:11;24.73;;;10.43;;
3155;SDS011;1588;50.892;7.082;2023-10-08T23:40:17;28.70;;;11.53;;
3155;SDS011;1588;50.892;7.082;2023-10-08T23:45:26;26.20;;;9.40;;
3155;SDS011;1588;50.892;7.082;2023-10-08T23:50:30;25.37;;;9.07;;
3155;SDS011;1588;50.892;7.082;2023-10-08T23:55:34;18.70;;;9.20;;
